sensor_id;sensor_type;location;lat;lon;timestamp;pressure;altitude;pressure_sealevel;temperature;humidity
6343;BME280;3204;42.698;23.298;2023-04-30T00:01:37;94601.91;;;12.53;77.08
6343;BME280;3204;42.698;23.298;2023-04-30T00:04:03;94603.22;;;12.47;76.78
6343;BME280;3204;42.698;23.298;2023-04-30T00:06:28;94601.16;;;12.44;76.88
6343;BME280;3204;42.698;23.298;2023-04-30T00:08:54;94598.75;;;12.42;76.87
6343;BME280;3204;42.698;23.298;2023-04-30T00:11:19;94599.94;;;12.33;76.85
6343;BME280;3204;42.698;23.298;2023-04-30T00:13:45;94606.97;;;12.34;77.29
6343;BME280;3204;42.698;23.298;2023-04-30T00:16:10;94604.25;;;12.34;77.20
6343;BME280;3204;42.698;23.298;2023-04-30T00:18:36;94610.06;;;12.24;77.61
6343;BME280;3204;42.698;23.298;2023-04-30T00:21:02;94607.66;;;12.22;77.64
6343;BME280;3204;42.698;23.298;2023-04-30T00:23:28;94598.91;;;12.17;77.86
6343;BME280;3204;42.698;23.298;2023-04-30T00:25:53;94605.81;;;12.14;78.04
6343;BME280;3204;42.698;23.298;2023-04-30T00:28:19;94598.63;;;12.10;78.10
6343;BME280;3204;42.698;23.298;2023-04-30T00:30:44;94596.91;;;11.97;78.53
6343;BME280;3204;42.698;23.298;2023-04-30T00:33:10;94598.97;;;12.00;78.73
6343;BME280;3204;42.698;23.298;2023-04-30T00:35:35;94600.25;;;12.02;78.61
6343;BME280;3204;42.698;23.298;2023-04-30T00:38:01;94600.88;;;12.08;78.57
6343;BME280;3204;42.698;23.298;2023-04-30T00:40:26;94603.78;;;12.03;78.71
6343;BME280;3204;42.698;23.298;2023-04-30T00:42:52;94597.75;;;11.89;79.17
6343;BME280;3204;42.698;23.298;2023-04-30T00:45:22;94595.66;;;11.86;79.06
6343;BME280;3204;42.698;23.298;2023-04-30T00:47:48;94600.47;;;11.80;79.61
6343;BME280;3204;42.698;23.298;2023-04-30T00:50:14;94590.91;;;11.74;79.84
6343;BME280;3204;42.698;23.298;2023-04-30T00:52:43;94588.69;;;11.76;79.54
6343;BME280;3204;42.698;23.298;2023-04-30T00:55:10;94593.94;;;11.73;79.76
6343;BME280;3204;42.698;23.298;2023-04-30T00:57:37;94597.28;;;11.78;79.59
6343;BME280;3204;42.698;23.298;2023-04-30T01:00:03;94601.63;;;11.71;79.73
6343;BME280;3204;42.698;23.298;2023-04-30T01:02:29;94589.00;;;11.66;79.28
6343;BME280;3204;42.698;23.298;2023-04-30T01:04:55;94592.41;;;11.63;80.08
6343;BME280;3204;42.698;23.298;2023-04-30T01:07:20;94594.31;;;11.63;80.19
6343;BME280;3204;42.698;23.298;2023-04-30T01:09:46;94596.19;;;11.54;80.69
6343;BME280;3204;42.698;23.298;2023-04-30T01:12:20;94594.63;;;11.53;80.89
6343;BME280;3204;42.698;23.298;2023-04-30T01:18:14;94596.69;;;11.64;80.49
6343;BME280;3204;42.698;23.298;2023-04-30T01:20:49;94595.25;;;11.58;80.48
6343;BME280;3204;42.698;23.298;2023-04-30T01:23:47;94587.44;;;11.40;80.73
6343;BME280;3204;42.698;23.298;2023-04-30T01:26:52;94598.78;;;11.50;80.38
6343;BME280;3204;42.698;23.298;2023-04-30T01:29:23;94596.72;;;11.39;80.14
6343;BME280;3204;42.698;23.298;2023-04-30T01:31:49;94598.16;;;11.36;80.16
6343;BME280;3204;42.698;23.298;2023-04-30T01:34:14;94591.25;;;11.47;79.79
6343;BME280;3204;42.698;23.298;2023-04-30T01:36:52;94595.91;;;11.47;79.94
6343;BME280;3204;42.698;23.298;2023-04-30T01:42:24;94596.41;;;11.40;80.20
6343;BME280;3204;42.698;23.298;2023-04-30T01:45:18;94596.59;;;11.27;80.90
6343;BME280;3204;42.698;23.298;2023-04-30T01:50:28;94594.97;;;11.26;80.99
6343;BME280;3204;42.698;23.298;2023-04-30T01:52:59;94593.38;;;11.25;81.19
6343;BME280;3204;42.698;23.298;2023-04-30T01:55:40;94598.50;;;11.18;81.64
6343;BME280;3204;42.698;23.298;2023-04-30T01:58:09;94600.09;;;11.19;81.29
6343;BME280;3204;42.698;23.298;2023-04-30T02:00:36;94596.13;;;11.16;81.31
6343;BME280;3204;42.698;23.298;2023-04-30T02:03:02;94597.69;;;11.17;81.57
6343;BME280;3204;42.698;23.298;2023-04-30T02:05:27;94598.50;;;11.18;81.32
6343;BME280;3204;42.698;23.298;2023-04-30T02:07:53;94595.50;;;11.19;81.68
6343;BME280;3204;42.698;23.298;2023-04-30T02:10:21;94593.25;;;11.21;81.76
6343;BME280;3204;42.698;23.298;2023-04-30T02:12:47;94597.22;;;11.24;81.60
6343;BME280;3204;42.698;23.298;2023-04-30T02:15:12;94599.16;;;11.15;81.93
6343;BME280;3204;42.698;23.298;2023-04-30T02:17:38;94599.78;;;11.29;81.13
6343;BME280;3204;42.698;23.298;2023-04-30T02:20:04;94603.13;;;11.17;81.41
6343;BME280;3204;42.698;23.298;2023-04-30T02:22:29;94605.38;;;11.15;81.60
6343;BME280;3204;42.698;23.298;2023-04-30T02:24:55;94594.69;;;11.19;81.18
6343;BME280;3204;42.698;23.298;2023-04-30T02:27:23;94592.13;;;11.14;81.57
6343;BME280;3204;42.698;23.298;2023-04-30T02:29:49;94590.53;;;11.13;81.56
6343;BME280;3204;42.698;23.298;2023-04-30T02:32:15;94592.44;;;11.12;81.61
6343;BME280;3204;42.698;23.298;2023-04-30T02:34:41;94590.69;;;11.08;81.57
6343;BME280;3204;42.698;23.298;2023-04-30T02:37:07;94595.78;;;11.09;82.21
6343;BME280;3204;42.698;23.298;2023-04-30T02:39:32;94592.59;;;11.07;82.27
6343;BME280;3204;42.698;23.298;2023-04-30T02:41:58;94593.56;;;11.11;82.39
6343;BME280;3204;42.698;23.298;2023-04-30T02:44:25;94586.06;;;11.08;82.60
6343;BME280;3204;42.698;23.298;2023-04-30T02:46:50;94599.78;;;11.12;82.39
6343;BME280;3204;42.698;23.298;2023-04-30T02:49:16;94595.00;;;11.09;82.55
6343;BME280;3204;42.698;23.298;2023-04-30T02:51:41;94598.19;;;11.11;82.60
6343;BME280;3204;42.698;23.298;2023-04-30T02:54:07;94609.03;;;11.11;82.24
6343;BME280;3204;42.698;23.298;2023-04-30T02:56:33;94608.41;;;11.14;82.27
6343;BME280;3204;42.698;23.298;2023-04-30T02:58:59;94602.03;;;11.10;82.74
6343;BME280;3204;42.698;23.298;2023-04-30T03:01:24;94601.69;;;11.20;82.70
6343;BME280;3204;42.698;23.298;2023-04-30T03:03:50;94610.16;;;11.35;81.73
6343;BME280;3204;42.698;23.298;2023-04-30T03:06:15;94604.25;;;11.25;82.14
6343;BME280;3204;42.698;23.298;2023-04-30T03:08:41;94605.84;;;11.26;82.09
6343;BME280;3204;42.698;23.298;2023-04-30T03:11:06;94616.22;;;11.41;81.28
6343;BME280;3204;42.698;23.298;2023-04-30T03:13:32;94616.88;;;11.29;81.57
6343;BME280;3204;42.698;23.298;2023-04-30T03:15:58;94617.66;;;11.30;81.61
6343;BME280;3204;42.698;23.298;2023-04-30T03:18:24;94614.63;;;11.23;82.06
6343;BME280;3204;42.698;23.298;2023-04-30T03:20:49;94610.16;;;11.27;81.22
6343;BME280;3204;42.698;23.298;2023-04-30T03:23:15;94617.66;;;11.30;80.97
6343;BME280;3204;42.698;23.298;2023-04-30T03:25:41;94620.06;;;11.31;79.57
6343;BME280;3204;42.698;23.298;2023-04-30T03:28:06;94617.19;;;11.19;79.11
6343;BME280;3204;42.698;23.298;2023-04-30T03:30:32;94624.06;;;11.17;78.94
6343;BME280;3204;42.698;23.298;2023-04-30T03:32:57;94631.41;;;11.08;79.22
6343;BME280;3204;42.698;23.298;2023-04-30T03:35:23;94625.16;;;11.16;79.00
6343;BME280;3204;42.698;23.298;2023-04-30T03:37:48;94624.03;;;11.34;77.73
6343;BME280;3204;42.698;23.298;2023-04-30T03:40:14;94629.63;;;11.37;77.49
6343;BME280;3204;42.698;23.298;2023-04-30T03:42:39;94634.59;;;11.27;77.29
6343;BME280;3204;42.698;23.298;2023-04-30T03:45:05;94638.72;;;11.16;77.39
6343;BME280;3204;42.698;23.298;2023-04-30T03:47:30;94634.72;;;10.79;78.47
6343;BME280;3204;42.698;23.298;2023-04-30T03:49:57;94647.63;;;10.74;79.69
6343;BME280;3204;42.698;23.298;2023-04-30T03:52:23;94650.06;;;10.84;78.43
6343;BME280;3204;42.698;23.298;2023-04-30T03:54:48;94652.63;;;10.89;79.14
6343;BME280;3204;42.698;23.298;2023-04-30T03:57:14;94647.00;;;10.85;79.02
6343;BME280;3204;42.698;23.298;2023-04-30T03:59:39;94648.94;;;10.85;78.98
6343;BME280;3204;42.698;23.298;2023-04-30T04:02:05;94659.78;;;10.76;79.38
6343;BME280;3204;42.698;23.298;2023-04-30T04:04:32;94654.69;;;10.75;78.90
6343;BME280;3204;42.698;23.298;2023-04-30T04:06:58;94654.38;;;10.85;79.29
6343;BME280;3204;42.698;23.298;2023-04-30T04:09:23;94648.59;;;10.78;79.14
6343;BME280;3204;42.698;23.298;2023-04-30T04:11:49;94660.31;;;11.04;78.63
6343;BME280;3204;42.698;23.298;2023-04-30T04:14:14;94658.69;;;10.94;78.65
6343;BME280;3204;42.698;23.298;2023-04-30T04:16:41;94656.28;;;10.93;78.62
6343;BME280;3204;42.698;23.298;2023-04-30T04:19:06;94661.59;;;10.98;78.17
6343;BME280;3204;42.698;23.298;2023-04-30T04:21:31;94652.63;;;10.89;78.79
6343;BME280;3204;42.698;23.298;2023-04-30T04:23:57;94666.66;;;10.99;78.58
6343;BME280;3204;42.698;23.298;2023-04-30T04:26:23;94663.47;;;10.97;78.62
6343;BME280;3204;42.698;23.298;2023-04-30T04:28:50;94655.34;;;10.89;78.99
6343;BME280;3204;42.698;23.298;2023-04-30T04:31:16;94663.31;;;10.94;78.74
6343;BME280;3204;42.698;23.298;2023-04-30T04:33:42;94668.28;;;11.00;78.80
6343;BME280;3204;42.698;23.298;2023-04-30T04:36:08;94662.84;;;11.09;78.39
6343;BME280;3204;42.698;23.298;2023-04-30T04:38:34;94674.03;;;11.24;77.85
6343;BME280;3204;42.698;23.298;2023-04-30T04:40:59;94667.34;;;11.30;77.67
6343;BME280;3204;42.698;23.298;2023-04-30T04:43:25;94665.56;;;11.43;77.23
6343;BME280;3204;42.698;23.298;2023-04-30T04:45:51;94665.41;;;11.39;77.39
6343;BME280;3204;42.698;23.298;2023-04-30T04:48:16;94673.38;;;11.27;77.33
6343;BME280;3204;42.698;23.298;2023-04-30T04:50:42;94674.50;;;11.35;77.71
6343;BME280;3204;42.698;23.298;2023-04-30T04:53:07;94683.78;;;11.34;77.57
6343;BME280;3204;42.698;23.298;2023-04-30T04:55:33;94686.00;;;11.40;77.29
6343;BME280;3204;42.698;23.298;2023-04-30T04:57:58;94689.03;;;11.47;77.26
6343;BME280;3204;42.698;23.298;2023-04-30T05:00:23;94689.50;;;11.58;76.35
6343;BME280;3204;42.698;23.298;2023-04-30T05:02:50;94683.78;;;11.51;76.69
6343;BME280;3204;42.698;23.298;2023-04-30T05:05:15;94686.66;;;11.63;76.08
6343;BME280;3204;42.698;23.298;2023-04-30T05:07:41;94689.69;;;11.70;76.40
6343;BME280;3204;42.698;23.298;2023-04-30T05:10:07;94678.03;;;11.61;75.98
6343;BME280;3204;42.698;23.298;2023-04-30T05:12:32;94683.78;;;11.59;76.56
6343;BME280;3204;42.698;23.298;2023-04-30T05:14:58;94684.44;;;11.65;76.10
6343;BME280;3204;42.698;23.298;2023-04-30T05:17:23;94684.75;;;11.63;76.15
6343;BME280;3204;42.698;23.298;2023-04-30T05:19:49;94686.97;;;11.70;75.64
6343;BME280;3204;42.698;23.298;2023-04-30T05:22:15;94684.09;;;11.49;76.48
6343;BME280;3204;42.698;23.298;2023-04-30T05:24:41;94685.88;;;11.62;76.70
6343;BME280;3204;42.698;23.298;2023-04-30T05:27:07;94672.75;;;11.64;75.95
6343;BME280;3204;42.698;23.298;2023-04-30T05:29:32;94688.41;;;11.76;75.99
6343;BME280;3204;42.698;23.298;2023-04-30T05:31:58;94686.13;;;11.95;75.89
6343;BME280;3204;42.698;23.298;2023-04-30T05:34:23;94696.63;;;12.13;75.01
6343;BME280;3204;42.698;23.298;2023-04-30T05:36:49;94698.25;;;12.14;74.62
6343;BME280;3204;42.698;23.298;2023-04-30T05:39:15;94696.34;;;12.06;75.13
6343;BME280;3204;42.698;23.298;2023-04-30T05:41:40;94694.44;;;11.98;75.64
6343;BME280;3204;42.698;23.298;2023-04-30T05:44:05;94692.19;;;12.00;75.45
6343;BME280;3204;42.698;23.298;2023-04-30T05:46:31;94689.81;;;11.99;75.25
6343;BME280;3204;42.698;23.298;2023-04-30T05:48:57;94693.63;;;12.06;75.74
6343;BME280;3204;42.698;23.298;2023-04-30T05:51:22;94693.91;;;12.22;75.29
6343;BME280;3204;42.698;23.298;2023-04-30T05:53:48;94696.44;;;12.18;75.03
6343;BME280;3204;42.698;23.298;2023-04-30T05:56:13;94690.16;;;12.35;74.49
6343;BME280;3204;42.698;23.298;2023-04-30T05:58:39;94694.84;;;12.26;74.86
6343;BME280;3204;42.698;23.298;2023-04-30T06:01:05;94690.88;;;12.15;75.24
6343;BME280;3204;42.698;23.298;2023-04-30T06:03:30;94703.00;;;12.17;75.05
6343;BME280;3204;42.698;23.298;2023-04-30T06:05:56;94699.16;;;12.27;75.00
6343;BME280;3204;42.698;23.298;2023-04-30T06:08:21;94699.06;;;12.52;74.08
6343;BME280;3204;42.698;23.298;2023-04-30T06:10:47;94708.50;;;12.46;74.17
6343;BME280;3204;42.698;23.298;2023-04-30T06:13:13;94710.53;;;12.58;74.34
6343;BME280;3204;42.698;23.298;2023-04-30T06:15:39;94714.50;;;12.69;73.59
6343;BME280;3204;42.698;23.298;2023-04-30T06:18:05;94717.50;;;12.76;73.23
6343;BME280;3204;42.698;23.298;2023-04-30T06:20:31;94713.66;;;12.77;73.22
6343;BME280;3204;42.698;23.298;2023-04-30T06:22:57;94710.41;;;12.83;73.05
6343;BME280;3204;42.698;23.298;2023-04-30T06:25:22;94709.78;;;12.86;73.60
6343;BME280;3204;42.698;23.298;2023-04-30T06:27:47;94713.78;;;13.18;72.82
6343;BME280;3204;42.698;23.298;2023-04-30T06:30:13;94716.50;;;13.18;71.81
6343;BME280;3204;42.698;23.298;2023-04-30T06:32:39;94720.06;;;13.10;72.38
6343;BME280;3204;42.698;23.298;2023-04-30T06:35:05;94724.38;;;13.11;72.78
6343;BME280;3204;42.698;23.298;2023-04-30T06:37:31;94715.03;;;12.91;72.85
6343;BME280;3204;42.698;23.298;2023-04-30T06:40:04;94717.44;;;12.93;72.51
6343;BME280;3204;42.698;23.298;2023-04-30T06:42:30;94707.00;;;13.24;72.04
6343;BME280;3204;42.698;23.298;2023-04-30T06:44:59;94712.88;;;13.55;71.55
6343;BME280;3204;42.698;23.298;2023-04-30T06:47:29;94707.31;;;13.84;70.27
6343;BME280;3204;42.698;23.298;2023-04-30T06:49:59;94715.66;;;14.20;68.79
6343;BME280;3204;42.698;23.298;2023-04-30T06:52:25;94715.59;;;14.08;68.70
6343;BME280;3204;42.698;23.298;2023-04-30T06:54:51;94719.13;;;14.08;68.78
6343;BME280;3204;42.698;23.298;2023-04-30T06:57:16;94712.25;;;14.23;68.37
6343;BME280;3204;42.698;23.298;2023-04-30T06:59:41;94714.97;;;14.23;68.26
6343;BME280;3204;42.698;23.298;2023-04-30T07:02:07;94715.47;;;14.37;67.59
6343;BME280;3204;42.698;23.298;2023-04-30T07:04:32;94717.53;;;14.40;67.69
6343;BME280;3204;42.698;23.298;2023-04-30T07:06:58;94720.53;;;14.59;67.39
6343;BME280;3204;42.698;23.298;2023-04-30T07:09:28;94723.72;;;14.73;67.47
6343;BME280;3204;42.698;23.298;2023-04-30T07:11:54;94721.78;;;14.73;67.36
6343;BME280;3204;42.698;23.298;2023-04-30T07:14:20;94722.00;;;14.92;66.69
6343;BME280;3204;42.698;23.298;2023-04-30T07:16:48;94719.53;;;14.99;66.61
6343;BME280;3204;42.698;23.298;2023-04-30T07:19:14;94721.91;;;15.13;66.06
6343;BME280;3204;42.698;23.298;2023-04-30T07:21:40;94718.13;;;15.17;65.30
6343;BME280;3204;42.698;23.298;2023-04-30T07:24:05;94725.09;;;15.27;65.52
6343;BME280;3204;42.698;23.298;2023-04-30T07:26:30;94718.03;;;15.38;65.14
6343;BME280;3204;42.698;23.298;2023-04-30T07:28:56;94721.91;;;15.37;64.85
6343;BME280;3204;42.698;23.298;2023-04-30T07:31:21;94718.03;;;15.38;64.93
6343;BME280;3204;42.698;23.298;2023-04-30T07:33:47;94723.41;;;15.34;65.45
6343;BME280;3204;42.698;23.298;2023-04-30T07:36:14;94722.13;;;15.44;65.51
6343;BME280;3204;42.698;23.298;2023-04-30T07:38:40;94722.75;;;15.65;65.22
6343;BME280;3204;42.698;23.298;2023-04-30T07:41:06;94724.25;;;15.74;64.86
6343;BME280;3204;42.698;23.298;2023-04-30T07:43:34;94730.28;;;15.68;64.82
6343;BME280;3204;42.698;23.298;2023-04-30T07:45:59;94725.94;;;15.67;64.92
6343;BME280;3204;42.698;23.298;2023-04-30T07:48:25;94735.72;;;15.80;64.65
6343;BME280;3204;42.698;23.298;2023-04-30T07:50:50;94717.13;;;15.85;64.65
6343;BME280;3204;42.698;23.298;2023-04-30T07:53:16;94724.09;;;16.10;63.98
6343;BME280;3204;42.698;23.298;2023-04-30T07:55:41;94721.91;;;16.43;63.06
6343;BME280;3204;42.698;23.298;2023-04-30T07:58:07;94731.22;;;16.70;61.53
6343;BME280;3204;42.698;23.298;2023-04-30T08:00:32;94728.13;;;16.72;61.04
6343;BME280;3204;42.698;23.298;2023-04-30T08:02:58;94730.16;;;16.59;61.30
6343;BME280;3204;42.698;23.298;2023-04-30T08:05:25;94733.69;;;16.75;60.46
6343;BME280;3204;42.698;23.298;2023-04-30T08:07:51;94719.66;;;16.77;61.04
6343;BME280;3204;42.698;23.298;2023-04-30T08:10:17;94735.22;;;17.04;61.33
6343;BME280;3204;42.698;23.298;2023-04-30T08:12:43;94734.31;;;17.15;60.57
6343;BME280;3204;42.698;23.298;2023-04-30T08:15:08;94738.81;;;17.23;60.13
6343;BME280;3204;42.698;23.298;2023-04-30T08:17:34;94741.03;;;17.18;60.02
6343;BME280;3204;42.698;23.298;2023-04-30T08:20:01;94743.31;;;17.16;60.04
6343;BME280;3204;42.698;23.298;2023-04-30T08:22:27;94740.59;;;17.16;60.23
6343;BME280;3204;42.698;23.298;2023-04-30T08:24:52;94741.81;;;17.18;59.89
6343;BME280;3204;42.698;23.298;2023-04-30T08:27:20;94742.78;;;17.26;58.99
6343;BME280;3204;42.698;23.298;2023-04-30T08:29:46;94740.03;;;17.26;59.28
6343;BME280;3204;42.698;23.298;2023-04-30T08:32:11;94737.22;;;17.22;58.56
6343;BME280;3204;42.698;23.298;2023-04-30T08:34:37;94733.25;;;17.20;58.93
6343;BME280;3204;42.698;23.298;2023-04-30T08:37:05;94744.91;;;17.32;59.19
6343;BME280;3204;42.698;23.298;2023-04-30T08:39:31;94738.13;;;17.42;58.49
6343;BME280;3204;42.698;23.298;2023-04-30T08:42:00;94737.22;;;17.53;58.20
6343;BME280;3204;42.698;23.298;2023-04-30T08:44:26;94733.19;;;17.85;57.24
6343;BME280;3204;42.698;23.298;2023-04-30T08:46:54;94734.88;;;17.90;57.10
6343;BME280;3204;42.698;23.298;2023-04-30T08:49:23;94726.66;;;18.09;57.36
6343;BME280;3204;42.698;23.298;2023-04-30T08:51:49;94719.19;;;18.28;55.82
6343;BME280;3204;42.698;23.298;2023-04-30T08:54:16;94715.28;;;18.67;55.69
6343;BME280;3204;42.698;23.298;2023-04-30T08:56:45;94712.47;;;19.31;54.40
6343;BME280;3204;42.698;23.298;2023-04-30T08:59:12;94710.00;;;19.75;52.80
6343;BME280;3204;42.698;23.298;2023-04-30T09:01:37;94699.53;;;20.13;52.22
6343;BME280;3204;42.698;23.298;2023-04-30T09:04:04;94693.72;;;20.55;51.58
6343;BME280;3204;42.698;23.298;2023-04-30T09:06:30;94700.59;;;21.11;50.43
6343;BME280;3204;42.698;23.298;2023-04-30T09:08:56;94696.94;;;21.47;49.07
6343;BME280;3204;42.698;23.298;2023-04-30T09:11:25;94696.63;;;21.59;48.13
6343;BME280;3204;42.698;23.298;2023-04-30T09:13:53;94696.72;;;21.70;48.16
6343;BME280;3204;42.698;23.298;2023-04-30T09:16:20;94689.41;;;21.98;47.84
6343;BME280;3204;42.698;23.298;2023-04-30T09:18:46;94687.31;;;21.81;47.57
6343;BME280;3204;42.698;23.298;2023-04-30T09:21:12;94683.00;;;21.80;47.63
6343;BME280;3204;42.698;23.298;2023-04-30T09:23:53;94682.41;;;22.25;47.19
6343;BME280;3204;42.698;23.298;2023-04-30T09:26:26;94679.00;;;22.67;46.16
6343;BME280;3204;42.698;23.298;2023-04-30T09:28:54;94673.72;;;22.23;46.63
6343;BME280;3204;42.698;23.298;2023-04-30T09:31:21;94672.41;;;22.00;46.69
6343;BME280;3204;42.698;23.298;2023-04-30T09:33:46;94666.72;;;22.47;45.24
6343;BME280;3204;42.698;23.298;2023-04-30T09:36:12;94662.88;;;23.00;44.82
6343;BME280;3204;42.698;23.298;2023-04-30T09:38:38;94656.97;;;23.40;44.10
6343;BME280;3204;42.698;23.298;2023-04-30T09:41:03;94666.06;;;23.37;44.16
6343;BME280;3204;42.698;23.298;2023-04-30T09:43:29;94662.09;;;23.17;44.38
6343;BME280;3204;42.698;23.298;2023-04-30T09:45:57;94662.41;;;22.53;45.17
6343;BME280;3204;42.698;23.298;2023-04-30T09:48:24;94662.56;;;21.95;45.77
6343;BME280;3204;42.698;23.298;2023-04-30T09:50:51;94660.72;;;21.56;46.88
6343;BME280;3204;42.698;23.298;2023-04-30T09:53:17;94651.44;;;21.81;46.77
6343;BME280;3204;42.698;23.298;2023-04-30T09:55:48;94646.91;;;22.31;45.84
6343;BME280;3204;42.698;23.298;2023-04-30T09:58:15;94643.88;;;22.85;45.28
6343;BME280;3204;42.698;23.298;2023-04-30T10:00:42;94643.94;;;23.34;44.99
6343;BME280;3204;42.698;23.298;2023-04-30T10:03:09;94641.09;;;23.69;43.77
6343;BME280;3204;42.698;23.298;2023-04-30T10:05:41;94645.84;;;23.89;42.62
6343;BME280;3204;42.698;23.298;2023-04-30T10:08:29;94639.56;;;23.15;43.37
6343;BME280;3204;42.698;23.298;2023-04-30T10:11:02;94639.19;;;23.20;43.58
6343;BME280;3204;42.698;23.298;2023-04-30T10:13:34;94643.91;;;23.13;43.83
6343;BME280;3204;42.698;23.298;2023-04-30T10:16:33;94635.59;;;23.06;43.52
6343;BME280;3204;42.698;23.298;2023-04-30T10:19:18;94648.63;;;22.74;43.83
6343;BME280;3204;42.698;23.298;2023-04-30T10:21:45;94666.19;;;22.20;44.98
6343;BME280;3204;42.698;23.298;2023-04-30T10:24:16;94669.91;;;20.76;51.03
6343;BME280;3204;42.698;23.298;2023-04-30T10:26:43;94683.44;;;19.89;58.25
6343;BME280;3204;42.698;23.298;2023-04-30T10:29:12;94703.00;;;19.06;62.27
6343;BME280;3204;42.698;23.298;2023-04-30T10:31:38;94695.59;;;18.24;64.48
6343;BME280;3204;42.698;23.298;2023-04-30T10:34:35;94692.84;;;18.05;67.71
6343;BME280;3204;42.698;23.298;2023-04-30T10:37:17;94685.34;;;18.02;68.79
6343;BME280;3204;42.698;23.298;2023-04-30T10:39:46;94680.63;;;18.21;69.27
6343;BME280;3204;42.698;23.298;2023-04-30T10:42:11;94674.34;;;18.21;68.10
6343;BME280;3204;42.698;23.298;2023-04-30T10:44:38;94667.66;;;18.82;72.12
6343;BME280;3204;42.698;23.298;2023-04-30T10:47:05;94674.19;;;19.45;66.73
6343;BME280;3204;42.698;23.298;2023-04-30T10:49:31;94675.06;;;19.53;59.21
6343;BME280;3204;42.698;23.298;2023-04-30T10:52:01;94673.06;;;19.79;60.10
6343;BME280;3204;42.698;23.298;2023-04-30T10:54:37;94658.78;;;20.00;59.11
6343;BME280;3204;42.698;23.298;2023-04-30T10:57:14;94665.03;;;19.64;59.84
6343;BME280;3204;42.698;23.298;2023-04-30T11:02:42;94654.53;;;20.39;59.94
6343;BME280;3204;42.698;23.298;2023-04-30T11:07:49;94644.94;;;21.56;56.62
6343;BME280;3204;42.698;23.298;2023-04-30T11:10:16;94643.34;;;21.55;54.04
6343;BME280;3204;42.698;23.298;2023-04-30T11:12:49;94647.91;;;21.91;51.64
6343;BME280;3204;42.698;23.298;2023-04-30T11:15:17;94656.13;;;21.70;51.26
6343;BME280;3204;42.698;23.298;2023-04-30T11:17:44;94650.09;;;21.04;51.64
6343;BME280;3204;42.698;23.298;2023-04-30T11:20:18;94647.88;;;20.40;52.19
6343;BME280;3204;42.698;23.298;2023-04-30T11:22:43;94655.31;;;20.36;52.55
6343;BME280;3204;42.698;23.298;2023-04-30T11:25:10;94653.19;;;20.59;52.71
6343;BME280;3204;42.698;23.298;2023-04-30T11:27:43;94645.44;;;20.71;52.94
6343;BME280;3204;42.698;23.298;2023-04-30T11:30:14;94639.28;;;20.88;51.74
6343;BME280;3204;42.698;23.298;2023-04-30T11:32:42;94639.13;;;21.14;50.85
6343;BME280;3204;42.698;23.298;2023-04-30T11:35:08;94645.69;;;21.50;50.38
6343;BME280;3204;42.698;23.298;2023-04-30T11:37:35;94645.59;;;22.00;48.96
6343;BME280;3204;42.698;23.298;2023-04-30T11:40:04;94650.69;;;21.34;53.12
6343;BME280;3204;42.698;23.298;2023-04-30T11:42:30;94641.03;;;20.23;55.63
6343;BME280;3204;42.698;23.298;2023-04-30T11:47:46;94642.31;;;20.03;54.65
6343;BME280;3204;42.698;23.298;2023-04-30T11:50:16;94635.91;;;19.33;55.31
6343;BME280;3204;42.698;23.298;2023-04-30T11:52:48;94639.47;;;19.37;58.31
6343;BME280;3204;42.698;23.298;2023-04-30T11:55:15;94638.50;;;19.00;57.32
6343;BME280;3204;42.698;23.298;2023-04-30T11:57:43;94630.16;;;18.71;59.78
6343;BME280;3204;42.698;23.298;2023-04-30T12:00:16;94626.97;;;19.17;59.85
6343;BME280;3204;42.698;23.298;2023-04-30T12:02:44;94626.97;;;19.40;58.67
6343;BME280;3204;42.698;23.298;2023-04-30T12:05:18;94623.31;;;18.61;57.35
6343;BME280;3204;42.698;23.298;2023-04-30T12:07:49;94624.84;;;18.17;59.76
6343;BME280;3204;42.698;23.298;2023-04-30T12:10:15;94621.88;;;18.26;60.19
6343;BME280;3204;42.698;23.298;2023-04-30T12:12:43;94637.25;;;18.30;60.14
6343;BME280;3204;42.698;23.298;2023-04-30T12:15:16;94646.34;;;17.93;60.83
6343;BME280;3204;42.698;23.298;2023-04-30T12:17:43;94646.13;;;17.82;61.60
6343;BME280;3204;42.698;23.298;2023-04-30T12:20:13;94661.56;;;17.71;61.54
6343;BME280;3204;42.698;23.298;2023-04-30T12:22:40;94661.56;;;17.18;63.69
6343;BME280;3204;42.698;23.298;2023-04-30T12:25:07;94663.00;;;16.96;66.83
6343;BME280;3204;42.698;23.298;2023-04-30T12:27:34;94666.38;;;16.74;69.20
6343;BME280;3204;42.698;23.298;2023-04-30T12:30:02;94663.53;;;16.71;69.53
6343;BME280;3204;42.698;23.298;2023-04-30T12:32:28;94662.66;;;16.67;70.21
6343;BME280;3204;42.698;23.298;2023-04-30T12:34:57;94658.50;;;16.57;69.28
6343;BME280;3204;42.698;23.298;2023-04-30T12:37:25;94658.88;;;16.56;70.25
6343;BME280;3204;42.698;23.298;2023-04-30T12:39:51;94661.41;;;16.64;70.37
6343;BME280;3204;42.698;23.298;2023-04-30T12:42:19;94672.81;;;16.51;71.00
6343;BME280;3204;42.698;23.298;2023-04-30T12:44:45;94654.25;;;16.59;69.68
6343;BME280;3204;42.698;23.298;2023-04-30T12:47:11;94654.09;;;16.68;67.57
6343;BME280;3204;42.698;23.298;2023-04-30T12:49:38;94654.00;;;16.65;67.13
6343;BME280;3204;42.698;23.298;2023-04-30T12:52:09;94655.56;;;16.81;66.44
6343;BME280;3204;42.698;23.298;2023-04-30T12:54:36;94658.22;;;16.93;66.57
6343;BME280;3204;42.698;23.298;2023-04-30T12:57:03;94662.59;;;17.13;66.56
6343;BME280;3204;42.698;23.298;2023-04-30T12:59:39;94669.66;;;17.14;65.77
6343;BME280;3204;42.698;23.298;2023-04-30T13:02:13;94671.28;;;17.15;63.48
6343;BME280;3204;42.698;23.298;2023-04-30T13:04:42;94657.63;;;17.34;63.88
6343;BME280;3204;42.698;23.298;2023-04-30T13:07:08;94656.59;;;17.58;63.35
6343;BME280;3204;42.698;23.298;2023-04-30T13:09:35;94645.69;;;17.61;62.87
6343;BME280;3204;42.698;23.298;2023-04-30T13:12:01;94642.00;;;17.73;63.42
6343;BME280;3204;42.698;23.298;2023-04-30T13:14:26;94622.78;;;17.92;63.83
6343;BME280;3204;42.698;23.298;2023-04-30T13:16:52;94622.84;;;18.14;62.97
6343;BME280;3204;42.698;23.298;2023-04-30T13:19:18;94623.03;;;18.25;62.19
6343;BME280;3204;42.698;23.298;2023-04-30T13:21:43;94621.44;;;18.24;62.54
6343;BME280;3204;42.698;23.298;2023-04-30T13:24:09;94617.69;;;18.32;65.14
6343;BME280;3204;42.698;23.298;2023-04-30T13:26:35;94616.75;;;18.92;61.99
6343;BME280;3204;42.698;23.298;2023-04-30T13:29:00;94618.50;;;19.03;59.88